sensor_id;sensor_type;location;lat;lon;timestamp;P1;durP1;ratioP1;P2;durP2;ratioP2
3006;SDS011;1513;47.650;10.720;2023-04-24T00:00:22;0.40;;;0.30;;
3006;SDS011;1513;47.650;10.720;2023-04-24T00:02:49;0.33;;;0.30;;
3006;SDS011;1513;47.650;10.720;2023-04-24T00:05:16;0.63;;;0.30;;
3006;SDS011;1513;47.650;10.720;2023-04-24T00:07:43;0.40;;;0.30;;
3006;SDS011;1513;47.650;10.720;2023-04-24T00:10:10;0.53;;;0.40;;
3006;SDS011;1513;47.650;10.720;2023-04-24T00:12:37;0.40;;;0.30;;
3006;SDS011;1513;47.650;10.720;2023-04-24T00:15:03;0.50;;;0.40;;
3006;SDS011;1513;47.650;10.720;2023-04-24T00:17:30;0.30;;;0.30;;
3006;SDS011;1513;47.650;10.720;2023-04-24T00:19:56;0.40;;;0.30;;
3006;SDS011;1513;47.650;10.720;2023-04-24T00:22:27;0.30;;;0.30;;
3006;SDS011;1513;47.650;10.720;2023-04-24T00:24:53;0.30;;;0.30;;
3006;SDS011;1513;47.650;10.720;2023-04-24T00:27:20;0.40;;;0.30;;
3006;SDS011;1513;47.650;10.720;2023-04-24T00:29:46;0.30;;;0.30;;
3006;SDS011;1513;47.650;10.720;2023-04-24T00:32:13;0.30;;;0.27;;
3006;SDS011;1513;47.650;10.720;2023-04-24T00:34:39;0.40;;;0.40;;
3006;SDS011;1513;47.650;10.720;2023-04-24T00:37:06;0.30;;;0.30;;
3006;SDS011;1513;47.650;10.720;2023-04-24T00:39:32;1.00;;;0.30;;
3006;SDS011;1513;47.650;10.720;2023-04-24T00:41:59;0.30;;;0.20;;
3006;SDS011;1513;47.650;10.720;2023-04-24T00:44:26;1.33;;;0.30;;
3006;SDS011;1513;47.650;10.720;2023-04-24T00:46:53;0.30;;;0.30;;
3006;SDS011;1513;47.650;10.720;2023-04-24T00:49:21;0.77;;;0.30;;
3006;SDS011;1513;47.650;10.720;2023-04-24T00:51:47;0.33;;;0.30;;
3006;SDS011;1513;47.650;10.720;2023-04-24T00:54:15;0.30;;;0.30;;
3006;SDS011;1513;47.650;10.720;2023-04-24T00:56:43;0.40;;;0.30;;
3006;SDS011;1513;47.650;10.720;2023-04-24T00:59:13;0.30;;;0.30;;
3006;SDS011;1513;47.650;10.720;2023-04-24T01:01:42;0.40;;;0.30;;
3006;SDS011;1513;47.650;10.720;2023-04-24T01:04:10;0.47;;;0.30;;
3006;SDS011;1513;47.650;10.720;2023-04-24T01:06:40;0.40;;;0.30;;
3006;SDS011;1513;47.650;10.720;2023-04-24T01:09:08;0.40;;;0.30;;
3006;SDS011;1513;47.650;10.720;2023-04-24T01:11:36;0.30;;;0.30;;
3006;SDS011;1513;47.650;10.720;2023-04-24T01:14:04;0.30;;;0.30;;
3006;SDS011;1513;47.650;10.720;2023-04-24T01:16:30;0.30;;;0.30;;
3006;SDS011;1513;47.650;10.720;2023-04-24T01:18:56;1.47;;;0.30;;
3006;SDS011;1513;47.650;10.720;2023-04-24T01:21:22;0.30;;;0.20;;
3006;SDS011;1513;47.650;10.720;2023-04-24T01:23:50;0.30;;;0.30;;
3006;SDS011;1513;47.650;10.720;2023-04-24T01:26:17;0.30;;;0.30;;
3006;SDS011;1513;47.650;10.720;2023-04-24T01:28:45;0.70;;;0.50;;
3006;SDS011;1513;47.650;10.720;2023-04-24T01:31:11;0.40;;;0.30;;
3006;SDS011;1513;47.650;10.720;2023-04-24T01:33:38;0.63;;;0.30;;
3006;SDS011;1513;47.650;10.720;2023-04-24T01:36:05;0.50;;;0.30;;
3006;SDS011;1513;47.650;10.720;2023-04-24T01:38:32;0.40;;;0.30;;
3006;SDS011;1513;47.650;10.720;2023-04-24T01:40:59;0.50;;;0.50;;
3006;SDS011;1513;47.650;10.720;2023-04-24T01:43:25;0.30;;;0.30;;
3006;SDS011;1513;47.650;10.720;2023-04-24T01:45:51;0.40;;;0.30;;
3006;SDS011;1513;47.650;10.720;2023-04-24T01:48:18;0.50;;;0.30;;
3006;SDS011;1513;47.650;10.720;2023-04-24T01:50:45;0.70;;;0.30;;
3006;SDS011;1513;47.650;10.720;2023-04-24T01:53:11;0.40;;;0.30;;
3006;SDS011;1513;47.650;10.720;2023-04-24T01:55:38;0.40;;;0.30;;
3006;SDS011;1513;47.650;10.720;2023-04-24T01:58:04;0.40;;;0.30;;
3006;SDS011;1513;47.650;10.720;2023-04-24T02:00:30;0.93;;;0.30;;
3006;SDS011;1513;47.650;10.720;2023-04-24T02:02:56;0.40;;;0.40;;
3006;SDS011;1513;47.650;10.720;2023-04-24T02:05:25;0.40;;;0.30;;
3006;SDS011;1513;47.650;10.720;2023-04-24T02:07:51;0.40;;;0.40;;
3006;SDS011;1513;47.650;10.720;2023-04-24T02:10:17;0.50;;;0.30;;
3006;SDS011;1513;47.650;10.720;2023-04-24T02:12:44;0.40;;;0.30;;
3006;SDS011;1513;47.650;10.720;2023-04-24T02:15:10;0.40;;;0.37;;
3006;SDS011;1513;47.650;10.720;2023-04-24T02:17:37;0.30;;;0.30;;
3006;SDS011;1513;47.650;10.720;2023-04-24T02:20:04;0.40;;;0.30;;
3006;SDS011;1513;47.650;10.720;2023-04-24T02:22:31;0.40;;;0.30;;
3006;SDS011;1513;47.650;10.720;2023-04-24T02:25:00;0.37;;;0.30;;
3006;SDS011;1513;47.650;10.720;2023-04-24T02:27:27;0.57;;;0.40;;
3006;SDS011;1513;47.650;10.720;2023-04-24T02:29:53;0.40;;;0.30;;
3006;SDS011;1513;47.650;10.720;2023-04-24T02:32:20;0.80;;;0.30;;
3006;SDS011;1513;47.650;10.720;2023-04-24T02:34:46;0.70;;;0.40;;
3006;SDS011;1513;47.650;10.720;2023-04-24T02:37:12;0.93;;;0.40;;
3006;SDS011;1513;47.650;10.720;2023-04-24T02:39:39;0.57;;;0.40;;
3006;SDS011;1513;47.650;10.720;2023-04-24T02:42:05;0.43;;;0.37;;
3006;SDS011;1513;47.650;10.720;2023-04-24T02:44:34;0.70;;;0.30;;
3006;SDS011;1513;47.650;10.720;2023-04-24T02:47:00;0.93;;;0.30;;
3006;SDS011;1513;47.650;10.720;2023-04-24T02:49:26;0.40;;;0.30;;
3006;SDS011;1513;47.650;10.720;2023-04-24T02:51:53;0.33;;;0.30;;
3006;SDS011;1513;47.650;10.720;2023-04-24T02:54:19;0.40;;;0.30;;
3006;SDS011;1513;47.650;10.720;2023-04-24T02:56:45;0.40;;;0.30;;
3006;SDS011;1513;47.650;10.720;2023-04-24T02:59:12;1.90;;;0.40;;
3006;SDS011;1513;47.650;10.720;2023-04-24T03:01:38;0.40;;;0.30;;
3006;SDS011;1513;47.650;10.720;2023-04-24T03:04:04;0.40;;;0.30;;
3006;SDS011;1513;47.650;10.720;2023-04-24T03:06:31;0.40;;;0.30;;
3006;SDS011;1513;47.650;10.720;2023-04-24T03:08:58;0.40;;;0.30;;
3006;SDS011;1513;47.650;10.720;2023-04-24T03:11:24;0.40;;;0.30;;
3006;SDS011;1513;47.650;10.720;2023-04-24T03:13:51;0.37;;;0.30;;
3006;SDS011;1513;47.650;10.720;2023-04-24T03:16:18;0.40;;;0.30;;
3006;SDS011;1513;47.650;10.720;2023-04-24T03:18:45;0.40;;;0.40;;
3006;SDS011;1513;47.650;10.720;2023-04-24T03:21:12;0.60;;;0.40;;
3006;SDS011;1513;47.650;10.720;2023-04-24T03:23:39;0.40;;;0.30;;
3006;SDS011;1513;47.650;10.720;2023-04-24T03:26:06;0.60;;;0.60;;
3006;SDS011;1513;47.650;10.720;2023-04-24T03:28:34;0.40;;;0.30;;
3006;SDS011;1513;47.650;10.720;2023-04-24T03:31:03;0.40;;;0.40;;
3006;SDS011;1513;47.650;10.720;2023-04-24T03:33:33;0.40;;;0.30;;
3006;SDS011;1513;47.650;10.720;2023-04-24T03:36:00;0.40;;;0.30;;
3006;SDS011;1513;47.650;10.720;2023-04-24T03:38:34;1.70;;;0.50;;
3006;SDS011;1513;47.650;10.720;2023-04-24T03:41:16;0.30;;;0.30;;
3006;SDS011;1513;47.650;10.720;2023-04-24T03:43:47;0.70;;;0.40;;
3006;SDS011;1513;47.650;10.720;2023-04-24T03:46:14;1.60;;;1.30;;
3006;SDS011;1513;47.650;10.720;2023-04-24T03:48:46;0.90;;;0.40;;
3006;SDS011;1513;47.650;10.720;2023-04-24T03:51:15;0.40;;;0.37;;
3006;SDS011;1513;47.650;10.720;2023-04-24T03:53:44;0.40;;;0.40;;
3006;SDS011;1513;47.650;10.720;2023-04-24T03:56:14;0.40;;;0.30;;
3006;SDS011;1513;47.650;10.720;2023-04-24T03:58:40;0.60;;;0.60;;
3006;SDS011;1513;47.650;10.720;2023-04-24T04:01:07;0.40;;;0.30;;
3006;SDS011;1513;47.650;10.720;2023-04-24T04:03:56;0.40;;;0.30;;
3006;SDS011;1513;47.650;10.720;2023-04-24T04:06:24;0.70;;;0.50;;
3006;SDS011;1513;47.650;10.720;2023-04-24T04:08:52;0.40;;;0.30;;
3006;SDS011;1513;47.650;10.720;2023-04-24T04:11:18;0.60;;;0.40;;
3006;SDS011;1513;47.650;10.720;2023-04-24T04:13:45;0.83;;;0.30;;
3006;SDS011;1513;47.650;10.720;2023-04-24T04:16:14;0.40;;;0.30;;
3006;SDS011;1513;47.650;10.720;2023-04-24T04:18:45;0.30;;;0.30;;
3006;SDS011;1513;47.650;10.720;2023-04-24T04:21:11;0.40;;;0.30;;
3006;SDS011;1513;47.650;10.720;2023-04-24T04:23:37;1.90;;;0.30;;
3006;SDS011;1513;47.650;10.720;2023-04-24T04:26:13;0.40;;;0.30;;
3006;SDS011;1513;47.650;10.720;2023-04-24T04:28:58;0.60;;;0.40;;
3006;SDS011;1513;47.650;10.720;2023-04-24T04:31:26;2.43;;;1.60;;
3006;SDS011;1513;47.650;10.720;2023-04-24T04:33:53;1.90;;;1.43;;
3006;SDS011;1513;47.650;10.720;2023-04-24T04:36:20;6.67;;;3.70;;
3006;SDS011;1513;47.650;10.720;2023-04-24T04:38:52;17.40;;;7.27;;
3006;SDS011;1513;47.650;10.720;2023-04-24T04:41:40;2.00;;;1.30;;
3006;SDS011;1513;47.650;10.720;2023-04-24T04:44:08;0.63;;;0.63;;
3006;SDS011;1513;47.650;10.720;2023-04-24T04:46:35;0.50;;;0.50;;
3006;SDS011;1513;47.650;10.720;2023-04-24T04:49:12;6.10;;;0.93;;
3006;SDS011;1513;47.650;10.720;2023-04-24T04:51:41;2.60;;;1.73;;
3006;SDS011;1513;47.650;10.720;2023-04-24T04:54:08;0.50;;;0.50;;
3006;SDS011;1513;47.650;10.720;2023-04-24T04:56:36;0.60;;;0.60;;
3006;SDS011;1513;47.650;10.720;2023-04-24T04:59:02;0.37;;;0.30;;
3006;SDS011;1513;47.650;10.720;2023-04-24T05:01:28;0.80;;;0.60;;
3006;SDS011;1513;47.650;10.720;2023-04-24T05:03:55;0.40;;;0.30;;
3006;SDS011;1513;47.650;10.720;2023-04-24T05:06:21;0.70;;;0.40;;
3006;SDS011;1513;47.650;10.720;2023-04-24T05:08:48;0.40;;;0.40;;
3006;SDS011;1513;47.650;10.720;2023-04-24T05:11:25;2.30;;;0.50;;
3006;SDS011;1513;47.650;10.720;2023-04-24T05:13:52;0.30;;;0.30;;
3006;SDS011;1513;47.650;10.720;2023-04-24T05:16:24;0.37;;;0.30;;
3006;SDS011;1513;47.650;10.720;2023-04-24T05:18:52;0.53;;;0.30;;
3006;SDS011;1513;47.650;10.720;2023-04-24T05:21:23;0.40;;;0.40;;
3006;SDS011;1513;47.650;10.720;2023-04-24T05:23:51;1.50;;;0.40;;
3006;SDS011;1513;47.650;10.720;2023-04-24T05:26:27;0.40;;;0.30;;
3006;SDS011;1513;47.650;10.720;2023-04-24T05:28:56;0.40;;;0.30;;
3006;SDS011;1513;47.650;10.720;2023-04-24T05:31:22;0.30;;;0.30;;
3006;SDS011;1513;47.650;10.720;2023-04-24T05:33:48;0.60;;;0.37;;
3006;SDS011;1513;47.650;10.720;2023-04-24T05:36:15;0.67;;;0.67;;
3006;SDS011;1513;47.650;10.720;2023-04-24T05:38:41;0.93;;;0.50;;
3006;SDS011;1513;47.650;10.720;2023-04-24T05:41:07;0.90;;;0.73;;
3006;SDS011;1513;47.650;10.720;2023-04-24T05:43:34;1.53;;;0.80;;
3006;SDS011;1513;47.650;10.720;2023-04-24T05:46:01;0.70;;;0.60;;
3006;SDS011;1513;47.650;10.720;2023-04-24T05:48:27;2.60;;;2.30;;
3006;SDS011;1513;47.650;10.720;2023-04-24T05:50:53;0.60;;;0.50;;
3006;SDS011;1513;47.650;10.720;2023-04-24T05:53:19;0.40;;;0.40;;
3006;SDS011;1513;47.650;10.720;2023-04-24T05:55:46;0.40;;;0.40;;
3006;SDS011;1513;47.650;10.720;2023-04-24T05:58:13;0.40;;;0.33;;
3006;SDS011;1513;47.650;10.720;2023-04-24T06:00:40;0.40;;;0.40;;
3006;SDS011;1513;47.650;10.720;2023-04-24T06:03:07;0.50;;;0.40;;
3006;SDS011;1513;47.650;10.720;2023-04-24T06:05:34;0.50;;;0.40;;
3006;SDS011;1513;47.650;10.720;2023-04-24T06:08:02;0.40;;;0.40;;
3006;SDS011;1513;47.650;10.720;2023-04-24T06:10:32;0.40;;;0.40;;
3006;SDS011;1513;47.650;10.720;2023-04-24T06:12:58;0.30;;;0.30;;
3006;SDS011;1513;47.650;10.720;2023-04-24T06:15:29;0.50;;;0.50;;
3006;SDS011;1513;47.650;10.720;2023-04-24T06:18:04;1.07;;;0.53;;
3006;SDS011;1513;47.650;10.720;2023-04-24T06:20:30;1.63;;;0.30;;
3006;SDS011;1513;47.650;10.720;2023-04-24T06:22:56;0.40;;;0.40;;
3006;SDS011;1513;47.650;10.720;2023-04-24T06:25:24;0.50;;;0.40;;
3006;SDS011;1513;47.650;10.720;2023-04-24T06:27:54;0.50;;;0.50;;
3006;SDS011;1513;47.650;10.720;2023-04-24T06:30:21;0.40;;;0.40;;
3006;SDS011;1513;47.650;10.720;2023-04-24T06:32:48;0.43;;;0.40;;
3006;SDS011;1513;47.650;10.720;2023-04-24T06:35:14;0.70;;;0.53;;
3006;SDS011;1513;47.650;10.720;2023-04-24T06:37:41;0.53;;;0.50;;
3006;SDS011;1513;47.650;10.720;2023-04-24T06:40:08;0.40;;;0.30;;
3006;SDS011;1513;47.650;10.720;2023-04-24T06:42:35;2.27;;;1.33;;
3006;SDS011;1513;47.650;10.720;2023-04-24T06:45:02;0.40;;;0.30;;
3006;SDS011;1513;47.650;10.720;2023-04-24T06:47:29;0.93;;;0.30;;
3006;SDS011;1513;47.650;10.720;2023-04-24T06:49:55;3.23;;;0.80;;
3006;SDS011;1513;47.650;10.720;2023-04-24T06:52:22;0.80;;;0.80;;
3006;SDS011;1513;47.650;10.720;2023-04-24T06:54:48;0.40;;;0.40;;
3006;SDS011;1513;47.650;10.720;2023-04-24T06:57:14;0.40;;;0.30;;
3006;SDS011;1513;47.650;10.720;2023-04-24T06:59:43;1.07;;;0.50;;
3006;SDS011;1513;47.650;10.720;2023-04-24T07:02:10;0.40;;;0.40;;
3006;SDS011;1513;47.650;10.720;2023-04-24T07:04:36;2.73;;;1.20;;
3006;SDS011;1513;47.650;10.720;2023-04-24T07:07:02;1.60;;;1.20;;
3006;SDS011;1513;47.650;10.720;2023-04-24T07:09:29;8.20;;;4.20;;
3006;SDS011;1513;47.650;10.720;2023-04-24T07:11:56;5.43;;;2.37;;
3006;SDS011;1513;47.650;10.720;2023-04-24T07:14:22;1.47;;;1.37;;
3006;SDS011;1513;47.650;10.720;2023-04-24T07:16:48;1.80;;;1.20;;
3006;SDS011;1513;47.650;10.720;2023-04-24T07:19:15;2.50;;;0.70;;
3006;SDS011;1513;47.650;10.720;2023-04-24T07:21:41;8.23;;;4.57;;
3006;SDS011;1513;47.650;10.720;2023-04-24T07:24:07;7.87;;;4.50;;
3006;SDS011;1513;47.650;10.720;2023-04-24T07:26:38;18.67;;;8.83;;
3006;SDS011;1513;47.650;10.720;2023-04-24T07:29:05;16.70;;;7.73;;
3006;SDS011;1513;47.650;10.720;2023-04-24T07:31:32;11.70;;;6.07;;
3006;SDS011;1513;47.650;10.720;2023-04-24T07:33:58;7.07;;;4.17;;
3006;SDS011;1513;47.650;10.720;2023-04-24T07:36:24;5.53;;;3.57;;
3006;SDS011;1513;47.650;10.720;2023-04-24T07:38:51;10.50;;;5.60;;
3006;SDS011;1513;47.650;10.720;2023-04-24T07:41:18;3.83;;;2.57;;
3006;SDS011;1513;47.650;10.720;2023-04-24T07:43:44;1.20;;;1.10;;
3006;SDS011;1513;47.650;10.720;2023-04-24T07:46:10;1.90;;;1.80;;
3006;SDS011;1513;47.650;10.720;2023-04-24T07:48:37;1.33;;;1.03;;
3006;SDS011;1513;47.650;10.720;2023-04-24T07:51:03;1.40;;;1.23;;
3006;SDS011;1513;47.650;10.720;2023-04-24T07:53:29;1.60;;;1.50;;
3006;SDS011;1513;47.650;10.720;2023-04-24T07:55:56;1.10;;;1.10;;
3006;SDS011;1513;47.650;10.720;2023-04-24T07:58:22;1.50;;;1.40;;
3006;SDS011;1513;47.650;10.720;2023-04-24T08:00:48;2.27;;;2.00;;
3006;SDS011;1513;47.650;10.720;2023-04-24T08:03:15;1.30;;;1.20;;
3006;SDS011;1513;47.650;10.720;2023-04-24T08:05:44;1.20;;;1.10;;
3006;SDS011;1513;47.650;10.720;2023-04-24T08:08:10;14.47;;;8.30;;
3006;SDS011;1513;47.650;10.720;2023-04-24T08:10:37;4.57;;;3.30;;
3006;SDS011;1513;47.650;10.720;2023-04-24T08:13:03;1.90;;;1.80;;
3006;SDS011;1513;47.650;10.720;2023-04-24T08:15:29;1.67;;;1.57;;
3006;SDS011;1513;47.650;10.720;2023-04-24T08:17:55;1.40;;;1.40;;
3006;SDS011;1513;47.650;10.720;2023-04-24T08:20:22;2.00;;;1.77;;
3006;SDS011;1513;47.650;10.720;2023-04-24T08:22:48;1.70;;;1.60;;
3006;SDS011;1513;47.650;10.720;2023-04-24T08:25:14;1.87;;;1.70;;
3006;SDS011;1513;47.650;10.720;2023-04-24T08:27:40;2.43;;;2.23;;
3006;SDS011;1513;47.650;10.720;2023-04-24T08:30:07;2.73;;;2.10;;
3006;SDS011;1513;47.650;10.720;2023-04-24T08:32:33;2.10;;;1.80;;
3006;SDS011;1513;47.650;10.720;2023-04-24T08:35:01;4.20;;;3.57;;
3006;SDS011;1513;47.650;10.720;2023-04-24T08:37:27;5.23;;;3.33;;
3006;SDS011;1513;47.650;10.720;2023-04-24T08:39:54;3.70;;;2.97;;
3006;SDS011;1513;47.650;10.720;2023-04-24T08:42:20;5.90;;;3.50;;
3006;SDS011;1513;47.650;10.720;2023-04-24T08:44:48;2.20;;;2.10;;
3006;SDS011;1513;47.650;10.720;2023-04-24T08:47:15;2.20;;;2.00;;
3006;SDS011;1513;47.650;10.720;2023-04-24T08:49:41;2.83;;;2.60;;
3006;SDS011;1513;47.650;10.720;2023-04-24T08:52:08;3.30;;;3.03;;
3006;SDS011;1513;47.650;10.720;2023-04-24T08:54:35;1.77;;;1.67;;
3006;SDS011;1513;47.650;10.720;2023-04-24T08:57:02;2.17;;;1.97;;
3006;SDS011;1513;47.650;10.720;2023-04-24T08:59:31;3.87;;;2.37;;
3006;SDS011;1513;47.650;10.720;2023-04-24T09:01:57;5.33;;;3.10;;
3006;SDS011;1513;47.650;10.720;2023-04-24T09:04:24;2.40;;;1.70;;
3006;SDS011;1513;47.650;10.720;2023-04-24T09:06:52;1.70;;;1.60;;
3006;SDS011;1513;47.650;10.720;2023-04-24T09:09:22;2.63;;;1.90;;
3006;SDS011;1513;47.650;10.720;2023-04-24T09:11:50;2.20;;;1.70;;
3006;SDS011;1513;47.650;10.720;2023-04-24T09:14:18;2.13;;;1.93;;
3006;SDS011;1513;47.650;10.720;2023-04-24T09:16:45;1.60;;;1.50;;
3006;SDS011;1513;47.650;10.720;2023-04-24T09:19:12;4.80;;;2.10;;
3006;SDS011;1513;47.650;10.720;2023-04-24T09:21:38;3.03;;;2.17;;
3006;SDS011;1513;47.650;10.720;2023-04-24T09:24:07;1.67;;;1.57;;
3006;SDS011;1513;47.650;10.720;2023-04-24T09:26:42;1.53;;;1.43;;
3006;SDS011;1513;47.650;10.720;2023-04-24T09:29:13;1.20;;;1.10;;
3006;SDS011;1513;47.650;10.720;2023-04-24T09:31:41;1.40;;;1.30;;
3006;SDS011;1513;47.650;10.720;2023-04-24T09:34:09;1.73;;;1.10;;
3006;SDS011;1513;47.650;10.720;2023-04-24T09:36:36;1.20;;;1.20;;
3006;SDS011;1513;47.650;10.720;2023-04-24T09:39:14;2.50;;;1.20;;
3006;SDS011;1513;47.650;10.720;2023-04-24T09:41:48;1.33;;;1.23;;
3006;SDS011;1513;47.650;10.720;2023-04-24T09:44:16;1.00;;;0.90;;
3006;SDS011;1513;47.650;10.720;2023-04-24T09:46:44;0.97;;;0.87;;
3006;SDS011;1513;47.650;10.720;2023-04-24T09:49:15;2.10;;;1.03;;
3006;SDS011;1513;47.650;10.720;2023-04-24T09:51:48;1.20;;;1.10;;
3006;SDS011;1513;47.650;10.720;2023-04-24T09:54:18;4.03;;;0.90;;
3006;SDS011;1513;47.650;10.720;2023-04-24T09:56:50;1.07;;;1.00;;
3006;SDS011;1513;47.650;10.720;2023-04-24T09:59:18;1.00;;;0.90;;
3006;SDS011;1513;47.650;10.720;2023-04-24T10:01:44;2.10;;;1.10;;
3006;SDS011;1513;47.650;10.720;2023-04-24T10:04:15;0.93;;;0.70;;
3006;SDS011;1513;47.650;10.720;2023-04-24T10:06:42;2.70;;;0.70;;
3006;SDS011;1513;47.650;10.720;2023-04-24T10:09:09;1.20;;;1.10;;
3006;SDS011;1513;47.650;10.720;2023-04-24T10:11:37;1.43;;;1.33;;
3006;SDS011;1513;47.650;10.720;2023-04-24T10:14:04;2.80;;;1.00;;
3006;SDS011;1513;47.650;10.720;2023-04-24T10:16:30;1.03;;;0.90;;
3006;SDS011;1513;47.650;10.720;2023-04-24T10:18:58;2.50;;;1.27;;
3006;SDS011;1513;47.650;10.720;2023-04-24T10:21:25;1.07;;;0.97;;
3006;SDS011;1513;47.650;10.720;2023-04-24T10:23:52;0.80;;;0.80;;
3006;SDS011;1513;47.650;10.720;2023-04-24T10:26:19;0.70;;;0.70;;
3006;SDS011;1513;47.650;10.720;2023-04-24T10:28:45;0.70;;;0.60;;
3006;SDS011;1513;47.650;10.720;2023-04-24T10:31:13;0.83;;;0.63;;
3006;SDS011;1513;47.650;10.720;2023-04-24T10:33:40;1.03;;;1.03;;
3006;SDS011;1513;47.650;10.720;2023-04-24T10:36:09;1.13;;;1.13;;
3006;SDS011;1513;47.650;10.720;2023-04-24T10:38:42;2.40;;;1.47;;
3006;SDS011;1513;47.650;10.720;2023-04-24T10:41:10;1.97;;;1.40;;
3006;SDS011;1513;47.650;10.720;2023-04-24T10:44:09;2.60;;;1.60;;
3006;SDS011;1513;47.650;10.720;2023-04-24T10:46:37;2.73;;;1.30;;
3006;SDS011;1513;47.650;10.720;2023-04-24T10:49:04;1.27;;;1.17;;
3006;SDS011;1513;47.650;10.720;2023-04-24T10:51:47;1.50;;;1.40;;
3006;SDS011;1513;47.650;10.720;2023-04-24T10:54:36;2.40;;;1.63;;
3006;SDS011;1513;47.650;10.720;2023-04-24T10:59:44;1.67;;;1.50;;
3006;SDS011;1513;47.650;10.720;2023-04-24T11:02:15;3.87;;;1.73;;
3006;SDS011;1513;47.650;10.720;2023-04-24T11:04:43;2.00;;;1.57;;
3006;SDS011;1513;47.650;10.720;2023-04-24T11:07:10;7.07;;;2.20;;
3006;SDS011;1513;47.650;10.720;2023-04-24T11:09:37;2.10;;;1.67;;
3006;SDS011;1513;47.650;10.720;2023-04-24T11:12:09;2.07;;;1.87;;
3006;SDS011;1513;47.650;10.720;2023-04-24T11:17:31;1.80;;;1.60;;
3006;SDS011;1513;47.650;10.720;2023-04-24T11:20:09;2.00;;;1.40;;
3006;SDS011;1513;47.650;10.720;2023-04-24T11:22:36;1.20;;;1.10;;
3006;SDS011;1513;47.650;10.720;2023-04-24T11:25:05;1.20;;;1.20;;
3006;SDS011;1513;47.650;10.720;2023-04-24T11:27:41;1.17;;;1.07;;
3006;SDS011;1513;47.650;10.720;2023-04-24T11:30:10;1.97;;;1.10;;
3006;SDS011;1513;47.650;10.720;2023-04-24T11:32:37;3.10;;;1.37;;
3006;SDS011;1513;47.650;10.720;2023-04-24T11:37:41;3.67;;;1.50;;
3006;SDS011;1513;47.650;10.720;2023-04-24T11:40:10;6.97;;;1.90;;
3006;SDS011;1513;47.650;10.720;2023-04-24T11:42:38;4.00;;;1.50;;
3006;SDS011;1513;47.650;10.720;2023-04-24T11:45:15;5.27;;;1.80;;
3006;SDS011;1513;47.650;10.720;2023-04-24T11:47:47;4.73;;;1.80;;
3006;SDS011;1513;47.650;10.720;2023-04-24T11:50:14;2.63;;;1.80;;
3006;SDS011;1513;47.650;10.720;2023-04-24T11:52:42;2.87;;;1.90;;
3006;SDS011;1513;47.650;10.720;2023-04-24T11:57:46;2.10;;;1.90;;
3006;SDS011;1513;47.650;10.720;2023-04-24T12:02:44;4.17;;;2.27;;
3006;SDS011;1513;47.650;10.720;2023-04-24T12:08:05;4.07;;;1.80;;
3006;SDS011;1513;47.650;10.720;2023-04-24T12:10:32;3.20;;;2.00;;
3006;SDS011;1513;47.650;10.720;2023-04-24T12:13:01;6.13;;;2.03;;
3006;SDS011;1513;47.650;10.720;2023-04-24T12:15:27;3.30;;;2.13;;
3006;SDS011;1513;47.650;10.720;2023-04-24T12:17:54;2.53;;;2.33;;
3006;SDS011;1513;47.650;10.720;2023-04-24T12:20:24;2.23;;;1.97;;
3006;SDS011;1513;47.650;10.720;2023-04-24T12:22:58;6.53;;;2.60;;
3006;SDS011;1513;47.650;10.720;2023-04-24T12:25:26;4.67;;;2.30;;
3006;SDS011;1513;47.650;10.720;2023-04-24T12:28:18;2.53;;;2.10;;
3006;SDS011;1513;47.650;10.720;2023-04-24T12:30:45;3.50;;;2.40;;
3006;SDS011;1513;47.650;10.720;2023-04-24T12:33:17;5.70;;;2.47;;
3006;SDS011;1513;47.650;10.720;2023-04-24T12:35:44;6.90;;;4.20;;
3006;SDS011;1513;47.650;10.720;2023-04-24T12:38:12;3.10;;;2.80;;
3006;SDS011;1513;47.650;10.720;2023-04-24T12:40:39;4.80;;;2.90;;
3006;SDS011;1513;47.650;10.720;2023-04-24T12:43:16;2.83;;;2.50;;
3006;SDS011;1513;47.650;10.720;2023-04-24T12:45:43;4.07;;;3.23;;
3006;SDS011;1513;47.650;10.720;2023-04-24T12:48:13;6.07;;;3.03;;
3006;SDS011;1513;47.650;10.720;2023-04-24T12:50:39;4.37;;;2.93;;
3006;SDS011;1513;47.650;10.720;2023-04-24T12:53:06;2.50;;;2.30;;
3006;SDS011;1513;47.650;10.720;2023-04-24T12:55:33;4.53;;;2.33;;
3006;SDS011;1513;47.650;10.720;2023-04-24T12:58:00;5.13;;;2.87;;
3006;SDS011;1513;47.650;10.720;2023-04-24T13:00:28;2.30;;;2.07;;
3006;SDS011;1513;47.650;10.720;2023-04-24T13:02:54;3.80;;;2.60;;
3006;SDS011;1513;47.650;10.720;2023-04-24T13:05:20;3.10;;;2.50;;
3006;SDS011;1513;47.650;10.720;2023-04-24T13:07:46;4.63;;;2.40;;
3006;SDS011;1513;47.650;10.720;2023-04-24T13:10:13;2.40;;;2.20;;
3006;SDS011;1513;47.650;10.720;2023-04-24T13:12:39;4.90;;;2.27;;
3006;SDS011;1513;47.650;10.720;2023-04-24T13:15:06;3.33;;;2.43;;
3006;SDS011;1513;47.650;10.720;2023-04-24T13:17:32;3.13;;;2.50;;
3006;SDS011;1513;47.650;10.720;2023-04-24T13:19:59;3.60;;;2.10;;
3006;SDS011;1513;47.650;10.720;2023-04-24T13:22:25;2.00;;;1.90;;
3006;SDS011;1513;47.650;10.720;2023-04-24T13:24:52;2.43;;;2.23;;
3006;SDS011;1513;47.650;10.720;2023-04-24T13:27:18;4.57;;;2.77;;
3006;SDS011;1513;47.650;10.720;2023-04-24T13:29:45;3.50;;;1.90;;
3006;SDS011;1513;47.650;10.720;2023-04-24T13:32:11;2.13;;;1.90;;
3006;SDS011;1513;47.650;10.720;2023-04-24T13:34:37;3.27;;;2.10;;
3006;SDS011;1513;47.650;10.720;2023-04-24T13:37:03;6.73;;;2.67;;
3006;SDS011;1513;47.650;10.720;2023-04-24T13:39:30;5.73;;;2.10;;
3006;SDS011;1513;47.650;10.720;2023-04-24T13:41:56;4.13;;;3.13;;
3006;SDS011;1513;47.650;10.720;2023-04-24T13:44:23;3.80;;;2.43;;
3006;SDS011;1513;47.650;10.720;2023-04-24T13:46:51;2.93;;;2.00;;
3006;SDS011;1513;47.650;10.720;2023-04-24T13:49:19;2.60;;;2.40;;
3006;SDS011;1513;47.650;10.720;2023-04-24T13:51:46;3.17;;;1.97;;
3006;SDS011;1513;47.650;10.720;2023-04-24T13:54:12;3.37;;;2.60;;
3006;SDS011;1513;47.650;10.720;2023-04-24T13:56:39;2.90;;;2.70;;
3006;SDS011;1513;47.650;10.720;2023-04-24T13:59:06;3.30;;;2.63;;
3006;SDS011;1513;47.650;10.720;2023-04-24T14:01:32;3.80;;;2.83;;
3006;SDS011;1513;47.650;10.720;2023-04-24T14:03:58;2.80;;;2.60;;
3006;SDS011;1513;47.650;10.720;2023-04-24T14:06:25;4.33;;;2.40;;
3006;SDS011;1513;47.650;10.720;2023-04-24T14:08:51;3.40;;;2.73;;
3006;SDS011;1513;47.650;10.720;2023-04-24T14:11:17;5.30;;;2.93;;
3006;SDS011;1513;47.650;10.720;2023-04-24T14:13:44;2.73;;;2.53;;
3006;SDS011;1513;47.650;10.720;2023-04-24T14:16:10;2.70;;;2.50;;
3006;SDS011;1513;47.650;10.720;2023-04-24T14:18:37;2.30;;;2.10;;
3006;SDS011;1513;47.650;10.720;2023-04-24T14:21:03;3.70;;;2.80;;
3006;SDS011;1513;47.650;10.720;2023-04-24T14:23:30;5.83;;;2.60;;
3006;SDS011;1513;47.650;10.720;2023-04-24T14:25:57;3.00;;;2.40;;
3006;SDS011;1513;47.650;10.720;2023-04-24T14:28:23;2.07;;;1.97;;
3006;SDS011;1513;47.650;10.720;2023-04-24T14:30:50;3.13;;;2.37;;
3006;SDS011;1513;47.650;10.720;2023-04-24T14:33:16;2.33;;;2.23;;
3006;SDS011;1513;47.650;10.720;2023-04-24T14:35:43;2.93;;;2.23;;
3006;SDS011;1513;47.650;10.720;2023-04-24T14:38:09;3.67;;;3.03;;
3006;SDS011;1513;47.650;10.720;2023-04-24T14:40:36;2.57;;;2.37;;
3006;SDS011;1513;47.650;10.720;2023-04-24T14:43:03;2.90;;;2.70;;
3006;SDS011;1513;47.650;10.720;2023-04-24T14:45:29;2.60;;;2.37;;
3006;SDS011;1513;47.650;10.720;2023-04-24T14:47:55;4.17;;;2.63;;
3006;SDS011;1513;47.650;10.720;2023-04-24T14:50:22;2.53;;;2.33;;
3006;SDS011;1513;47.650;10.720;2023-04-24T14:52:52;4.03;;;2.67;;
3006;SDS011;1513;47.650;10.720;2023-04-24T14:55:23;4.33;;;2.37;;
3006;SDS011;1513;47.650;10.720;2023-04-24T14:57:49;2.80;;;2.43;;
3006;SDS011;1513;47.650;10.720;2023-04-24T15:00:16;2.67;;;2.33;;
3006;SDS011;1513;47.650;10.720;2023-04-24T15:02:42;2.70;;;2.50;;
3006;SDS011;1513;47.650;10.720;2023-04-24T15:05:09;2.77;;;2.50;;
3006;SDS011;1513;47.650;10.720;2023-04-24T15:07:36;3.07;;;2.10;;
3006;SDS011;1513;47.650;10.720;2023-04-24T15:10:03;2.63;;;2.43;;
3006;SDS011;1513;47.650;10.720;2023-04-24T15:12:30;2.20;;;2.00;;
3006;SDS011;1513;47.650;10.720;2023-04-24T15:14:57;6.83;;;2.43;;
3006;SDS011;1513;47.650;10.720;2023-04-24T15:17:24;3.40;;;3.00;;
3006;SDS011;1513;47.650;10.720;2023-04-24T15:19:50;3.33;;;3.03;;